sensor_id;sensor_type;location;lat;lon;timestamp;pressure;altitude;pressure_sealevel;temperature;humidity
38026;BME280;23836;48.430;9.888;2022-09-01T00:00:21;95372.28;;;15.64;100.00
38026;BME280;23836;48.430;9.888;2022-09-01T00:05:20;95377.16;;;15.93;99.89
38026;BME280;23836;48.430;9.888;2022-09-01T00:10:11;95368.81;;;16.10;99.81
38026;BME280;23836;48.430;9.888;2022-09-01T00:15:05;95372.03;;;16.22;98.85
38026;BME280;23836;48.430;9.888;2022-09-01T00:19:56;95368.53;;;16.16;100.00
38026;BME280;23836;48.430;9.888;2022-09-01T00:24:47;95373.34;;;16.30;100.00
38026;BME280;23836;48.430;9.888;2022-09-01T00:29:38;95366.59;;;16.43;99.21
38026;BME280;23836;48.430;9.888;2022-09-01T00:34:29;95361.25;;;16.32;98.80
38026;BME280;23836;48.430;9.888;2022-09-01T00:39:21;95359.41;;;16.17;100.00
38026;BME280;23836;48.430;9.888;2022-09-01T00:44:15;95360.97;;;16.39;100.00
38026;BME280;23836;48.430;9.888;2022-09-01T00:49:11;95362.56;;;16.40;99.79
38026;BME280;23836;48.430;9.888;2022-09-01T00:54:06;95353.44;;;16.41;100.00
38026;BME280;23836;48.430;9.888;2022-09-01T00:58:59;95355.06;;;16.42;100.00
38026;BME280;23836;48.430;9.888;2022-09-01T01:03:51;95354.50;;;16.55;100.00
38026;BME280;23836;48.430;9.888;2022-09-01T01:08:46;95348.03;;;16.51;98.77
38026;BME280;23836;48.430;9.888;2022-09-01T01:14:15;95347.81;;;16.32;100.00
38026;BME280;23836;48.430;9.888;2022-09-01T01:24:34;95355.53;;;16.59;98.34
38026;BME280;23836;48.430;9.888;2022-09-01T01:29:31;95351.75;;;16.71;99.83
38026;BME280;23836;48.430;9.888;2022-09-01T01:34:22;95321.72;;;16.48;98.78
38026;BME280;23836;48.430;9.888;2022-09-01T01:39:19;95348.34;;;16.34;100.00
38026;BME280;23836;48.430;9.888;2022-09-01T01:44:13;95344.84;;;16.39;99.68
38026;BME280;23836;48.430;9.888;2022-09-01T01:49:04;95353.19;;;16.27;100.00
38026;BME280;23836;48.430;9.888;2022-09-01T01:53:55;95351.84;;;16.30;100.00
38026;BME280;23836;48.430;9.888;2022-09-01T01:58:46;95346.97;;;16.47;100.00
38026;BME280;23836;48.430;9.888;2022-09-01T02:03:38;95340.81;;;16.47;99.84
38026;BME280;23836;48.430;9.888;2022-09-01T02:08:29;95349.66;;;16.47;100.00
38026;BME280;23836;48.430;9.888;2022-09-01T02:13:22;95338.84;;;16.63;100.00
38026;BME280;23836;48.430;9.888;2022-09-01T02:18:22;95338.38;;;16.45;100.00
38026;BME280;23836;48.430;9.888;2022-09-01T02:23:15;95336.78;;;16.49;100.00
38026;BME280;23836;48.430;9.888;2022-09-01T02:28:14;95335.44;;;16.47;100.00
38026;BME280;23836;48.430;9.888;2022-09-01T02:33:06;95333.19;;;16.74;100.00
38026;BME280;23836;48.430;9.888;2022-09-01T02:37:59;95332.44;;;16.53;99.93
38026;BME280;23836;48.430;9.888;2022-09-01T02:42:50;95335.91;;;16.64;100.00
38026;BME280;23836;48.430;9.888;2022-09-01T02:47:45;95323.59;;;16.53;99.76
38026;BME280;23836;48.430;9.888;2022-09-01T02:52:39;95329.75;;;16.53;100.00
38026;BME280;23836;48.430;9.888;2022-09-01T02:57:31;95321.63;;;16.74;100.00
38026;BME280;23836;48.430;9.888;2022-09-01T03:02:23;95327.50;;;16.81;100.00
38026;BME280;23836;48.430;9.888;2022-09-01T03:07:18;95322.66;;;16.88;100.00
38026;BME280;23836;48.430;9.888;2022-09-01T03:12:12;95328.59;;;16.80;99.65
38026;BME280;23836;48.430;9.888;2022-09-01T03:17:02;95321.03;;;16.82;99.04
38026;BME280;23836;48.430;9.888;2022-09-01T03:21:53;95317.28;;;16.88;99.45
38026;BME280;23836;48.430;9.888;2022-09-01T03:26:50;95323.47;;;16.89;99.20
38026;BME280;23836;48.430;9.888;2022-09-01T03:31:41;95322.38;;;16.80;99.60
38026;BME280;23836;48.430;9.888;2022-09-01T03:36:32;95286.84;;;16.33;99.90
38026;BME280;23836;48.430;9.888;2022-09-01T03:41:25;95323.84;;;16.62;100.00
38026;BME280;23836;48.430;9.888;2022-09-01T03:46:18;95309.50;;;16.76;100.00
38026;BME280;23836;48.430;9.888;2022-09-01T03:51:10;95307.63;;;16.72;100.00
38026;BME280;23836;48.430;9.888;2022-09-01T03:56:04;95297.69;;;16.77;100.00
38026;BME280;23836;48.430;9.888;2022-09-01T04:00:57;95302.75;;;16.84;100.00
38026;BME280;23836;48.430;9.888;2022-09-01T04:05:53;95305.22;;;16.75;98.25
38026;BME280;23836;48.430;9.888;2022-09-01T04:10:47;95297.53;;;16.43;99.22
38026;BME280;23836;48.430;9.888;2022-09-01T04:15:42;95301.78;;;16.59;100.00
38026;BME280;23836;48.430;9.888;2022-09-01T04:20:33;95301.16;;;16.78;100.00
38026;BME280;23836;48.430;9.888;2022-09-01T04:25:29;95299.78;;;16.86;99.05
38026;BME280;23836;48.430;9.888;2022-09-01T04:30:21;95298.47;;;16.88;99.77
38026;BME280;23836;48.430;9.888;2022-09-01T04:35:17;95299.53;;;16.92;99.03
38026;BME280;23836;48.430;9.888;2022-09-01T04:40:10;95202.19;;;16.40;99.16
38026;BME280;23836;48.430;9.888;2022-09-01T04:45:03;95300.50;;;17.07;98.84
38026;BME280;23836;48.430;9.888;2022-09-01T04:50:00;95299.38;;;17.18;98.98
38026;BME280;23836;48.430;9.888;2022-09-01T04:54:54;95218.81;;;16.48;97.47
38026;BME280;23836;48.430;9.888;2022-09-01T04:59:45;95268.66;;;16.74;98.12
38026;BME280;23836;48.430;9.888;2022-09-01T05:04:36;95304.78;;;17.13;98.43
38026;BME280;23836;48.430;9.888;2022-09-01T05:09:30;95305.88;;;17.07;99.49
38026;BME280;23836;48.430;9.888;2022-09-01T05:14:23;95300.28;;;17.03;96.61
38026;BME280;23836;48.430;9.888;2022-09-01T05:19:15;95304.81;;;17.03;98.54
38026;BME280;23836;48.430;9.888;2022-09-01T05:24:06;95244.50;;;16.64;98.19
38026;BME280;23836;48.430;9.888;2022-09-01T05:29:00;95303.31;;;16.86;95.41
38026;BME280;23836;48.430;9.888;2022-09-01T05:33:53;95309.47;;;16.92;97.33
38026;BME280;23836;48.430;9.888;2022-09-01T05:38:49;95306.97;;;17.06;98.95
38026;BME280;23836;48.430;9.888;2022-09-01T05:43:43;95307.50;;;17.03;96.32
38026;BME280;23836;48.430;9.888;2022-09-01T05:48:40;95325.88;;;16.85;95.97
38026;BME280;23836;48.430;9.888;2022-09-01T05:53:31;95306.00;;;16.81;99.72
38026;BME280;23836;48.430;9.888;2022-09-01T05:58:24;95318.81;;;17.05;97.62
38026;BME280;23836;48.430;9.888;2022-09-01T06:03:16;95316.09;;;17.10;96.88
38026;BME280;23836;48.430;9.888;2022-09-01T06:08:08;95309.50;;;17.32;97.65
38026;BME280;23836;48.430;9.888;2022-09-01T06:13:00;95315.03;;;17.51;95.60
38026;BME280;23836;48.430;9.888;2022-09-01T06:17:52;95317.13;;;17.59;93.25
38026;BME280;23836;48.430;9.888;2022-09-01T06:22:42;95316.50;;;17.33;90.45
38026;BME280;23836;48.430;9.888;2022-09-01T06:27:34;95322.91;;;17.42;92.72
38026;BME280;23836;48.430;9.888;2022-09-01T06:32:34;95313.53;;;17.69;93.81
38026;BME280;23836;48.430;9.888;2022-09-01T06:37:28;95318.56;;;17.46;90.01
38026;BME280;23836;48.430;9.888;2022-09-01T06:42:21;95323.78;;;17.32;93.47
38026;BME280;23836;48.430;9.888;2022-09-01T06:47:13;95292.34;;;17.22;94.29
38026;BME280;23836;48.430;9.888;2022-09-01T06:52:04;95320.72;;;17.44;95.99
38026;BME280;23836;48.430;9.888;2022-09-01T06:56:56;95295.50;;;17.35;95.59
38026;BME280;23836;48.430;9.888;2022-09-01T07:01:48;95330.25;;;17.65;91.72
38026;BME280;23836;48.430;9.888;2022-09-01T07:06:43;95328.69;;;17.59;90.89
38026;BME280;23836;48.430;9.888;2022-09-01T07:11:34;95330.06;;;17.91;91.02
38026;BME280;23836;48.430;9.888;2022-09-01T07:16:25;95329.72;;;17.63;91.09
38026;BME280;23836;48.430;9.888;2022-09-01T07:21:17;95337.13;;;17.82;92.37
38026;BME280;23836;48.430;9.888;2022-09-01T07:26:08;95328.44;;;17.95;91.13
38026;BME280;23836;48.430;9.888;2022-09-01T07:31:00;95343.53;;;17.96;92.02
38026;BME280;23836;48.430;9.888;2022-09-01T07:35:54;95336.50;;;17.95;92.29
38026;BME280;23836;48.430;9.888;2022-09-01T07:40:48;95352.72;;;18.20;91.84
38026;BME280;23836;48.430;9.888;2022-09-01T07:45:43;95350.25;;;18.23;87.68
38026;BME280;23836;48.430;9.888;2022-09-01T07:50:41;95360.84;;;18.14;90.40
38026;BME280;23836;48.430;9.888;2022-09-01T07:55:39;95363.50;;;18.20;87.21
38026;BME280;23836;48.430;9.888;2022-09-01T08:00:33;95367.13;;;18.05;85.71
38026;BME280;23836;48.430;9.888;2022-09-01T08:05:24;95364.50;;;17.99;88.50
38026;BME280;23836;48.430;9.888;2022-09-01T08:21:37;95370.25;;;18.17;86.36
38026;BME280;23836;48.430;9.888;2022-09-01T08:26:30;95387.47;;;18.21;88.39
38026;BME280;23836;48.430;9.888;2022-09-01T08:31:23;95353.16;;;18.03;90.71
38026;BME280;23836;48.430;9.888;2022-09-01T08:36:16;95380.47;;;18.20;89.74
38026;BME280;23836;48.430;9.888;2022-09-01T08:41:22;95386.44;;;18.17;87.41
38026;BME280;23836;48.430;9.888;2022-09-01T08:46:25;95396.88;;;18.24;88.63
38026;BME280;23836;48.430;9.888;2022-09-01T08:51:34;95394.16;;;18.29;88.18
38026;BME280;23836;48.430;9.888;2022-09-01T08:56:27;95391.78;;;18.51;84.87
38026;BME280;23836;48.430;9.888;2022-09-01T09:01:30;95387.47;;;19.23;86.41
38026;BME280;23836;48.430;9.888;2022-09-01T09:16:20;95387.13;;;19.30;77.50
38026;BME280;23836;48.430;9.888;2022-09-01T09:21:35;95388.78;;;19.25;77.63
38026;BME280;23836;48.430;9.888;2022-09-01T09:26:30;95394.44;;;19.05;79.52
38026;BME280;23836;48.430;9.888;2022-09-01T09:31:37;95396.84;;;19.06;79.77
38026;BME280;23836;48.430;9.888;2022-09-01T09:36:35;95391.78;;;19.24;76.95
38026;BME280;23836;48.430;9.888;2022-09-01T09:41:27;95404.94;;;19.06;79.67
38026;BME280;23836;48.430;9.888;2022-09-01T10:20:23;95379.38;;;19.23;80.51
38026;BME280;23836;48.430;9.888;2022-09-01T10:54:09;95368.31;;;24.90;61.27
38026;BME280;23836;48.430;9.888;2022-09-01T12:25:43;95337.25;;;21.65;65.40
38026;BME280;23836;48.430;9.888;2022-09-01T13:28:49;95330.03;;;21.10;68.41
38026;BME280;23836;48.430;9.888;2022-09-01T18:19:43;95269.75;;;18.89;69.12
38026;BME280;23836;48.430;9.888;2022-09-01T18:24:55;95277.34;;;18.82;68.47
38026;BME280;23836;48.430;9.888;2022-09-01T18:29:49;95293.53;;;18.82;70.33
38026;BME280;23836;48.430;9.888;2022-09-01T18:40:09;95285.91;;;18.46;70.86
38026;BME280;23836;48.430;9.888;2022-09-01T19:01:41;95290.28;;;17.83;71.06
38026;BME280;23836;48.430;9.888;2022-09-01T19:21:58;95298.13;;;17.45;73.14
38026;BME280;23836;48.430;9.888;2022-09-01T19:26:56;95279.03;;;17.41;73.04
38026;BME280;23836;48.430;9.888;2022-09-01T19:31:52;95275.47;;;17.51;72.20
38026;BME280;23836;48.430;9.888;2022-09-01T19:36:55;95300.16;;;17.58;72.70
38026;BME280;23836;48.430;9.888;2022-09-01T19:47:08;95289.53;;;17.38;73.01
38026;BME280;23836;48.430;9.888;2022-09-01T19:52:09;95273.91;;;17.05;73.95
38026;BME280;23836;48.430;9.888;2022-09-01T19:57:02;95295.97;;;17.02;73.66
38026;BME280;23836;48.430;9.888;2022-09-01T20:02:00;95290.91;;;16.90;74.47
38026;BME280;23836;48.430;9.888;2022-09-01T20:06:57;95287.72;;;16.88;74.58
38026;BME280;23836;48.430;9.888;2022-09-01T20:11:57;95288.31;;;17.25;73.56
38026;BME280;23836;48.430;9.888;2022-09-01T20:16:52;95258.22;;;16.63;73.64
38026;BME280;23836;48.430;9.888;2022-09-01T20:21:47;95271.66;;;16.68;74.87
38026;BME280;23836;48.430;9.888;2022-09-01T20:26:43;95282.34;;;16.83;73.97
38026;BME280;23836;48.430;9.888;2022-09-01T20:31:46;95268.44;;;16.66;74.80
38026;BME280;23836;48.430;9.888;2022-09-01T20:36:46;95279.63;;;16.88;74.20
38026;BME280;23836;48.430;9.888;2022-09-01T20:41:45;95284.94;;;17.04;74.47
38026;BME280;23836;48.430;9.888;2022-09-01T20:46:38;95273.63;;;17.07;75.62
38026;BME280;23836;48.430;9.888;2022-09-01T20:52:06;95248.50;;;16.72;74.72
38026;BME280;23836;48.430;9.888;2022-09-01T20:57:12;95291.47;;;16.82;76.07
38026;BME280;23836;48.430;9.888;2022-09-01T21:18:46;95289.94;;;16.66;75.19
38026;BME280;23836;48.430;9.888;2022-09-01T21:23:39;95282.91;;;16.75;77.07
38026;BME280;23836;48.430;9.888;2022-09-01T21:28:31;95290.25;;;16.49;74.74
38026;BME280;23836;48.430;9.888;2022-09-01T21:33:30;95278.69;;;16.58;74.50
38026;BME280;23836;48.430;9.888;2022-09-01T21:38:23;95275.53;;;16.46;76.23
38026;BME280;23836;48.430;9.888;2022-09-01T21:43:27;95277.69;;;16.34;76.48
38026;BME280;23836;48.430;9.888;2022-09-01T21:48:18;95279.31;;;16.35;77.86
38026;BME280;23836;48.430;9.888;2022-09-01T21:53:09;95271.75;;;16.37;74.73
38026;BME280;23836;48.430;9.888;2022-09-01T21:58:02;95280.16;;;16.25;76.37
38026;BME280;23836;48.430;9.888;2022-09-01T22:02:54;95241.78;;;16.04;79.25
38026;BME280;23836;48.430;9.888;2022-09-01T22:07:52;95273.63;;;16.41;76.79
38026;BME280;23836;48.430;9.888;2022-09-01T22:12:46;95271.53;;;16.28;76.47
38026;BME280;23836;48.430;9.888;2022-09-01T22:17:37;95259.53;;;16.00;76.51
38026;BME280;23836;48.430;9.888;2022-09-01T22:22:28;95260.09;;;15.86;76.63
38026;BME280;23836;48.430;9.888;2022-09-01T22:27:20;95255.28;;;15.58;80.24
38026;BME280;23836;48.430;9.888;2022-09-01T22:32:11;95262.78;;;15.66;78.15
38026;BME280;23836;48.430;9.888;2022-09-01T22:37:03;95219.34;;;15.48;77.49
38026;BME280;23836;48.430;9.888;2022-09-01T22:41:55;95253.94;;;15.40;78.51
38026;BME280;23836;48.430;9.888;2022-09-01T22:46:47;95228.72;;;15.46;78.47
38026;BME280;23836;48.430;9.888;2022-09-01T22:51:41;95255.00;;;15.85;78.20
38026;BME280;23836;48.430;9.888;2022-09-01T22:56:35;95248.28;;;15.67;77.67
38026;BME280;23836;48.430;9.888;2022-09-01T23:01:35;95259.03;;;15.77;78.41
38026;BME280;23836;48.430;9.888;2022-09-01T23:06:28;95234.34;;;15.55;78.42
38026;BME280;23836;48.430;9.888;2022-09-01T23:11:20;95250.41;;;15.65;76.87
38026;BME280;23836;48.430;9.888;2022-09-01T23:16:13;95219.31;;;15.38;77.04
38026;BME280;23836;48.430;9.888;2022-09-01T23:21:06;95255.00;;;15.54;78.20
38026;BME280;23836;48.430;9.888;2022-09-01T23:25:58;95254.19;;;15.54;78.12
38026;BME280;23836;48.430;9.888;2022-09-01T23:30:50;95243.72;;;15.26;77.45
38026;BME280;23836;48.430;9.888;2022-09-01T23:35:43;95214.50;;;14.94;78.79
38026;BME280;23836;48.430;9.888;2022-09-01T23:40:38;95272.69;;;15.14;79.04
38026;BME280;23836;48.430;9.888;2022-09-01T23:45:29;95219.28;;;14.76;78.53
38026;BME280;23836;48.430;9.888;2022-09-01T23:50:19;95243.91;;;14.63;80.64
38026;BME280;23836;48.430;9.888;2022-09-01T23:55:10;95246.63;;;14.73;81.52
